createdAt,value
2018-06-18T00:03:51.271Z,4.10
2018-06-18T00:08:42.950Z,3.83
2018-06-18T00:13:33.872Z,3.90
2018-06-18T00:18:24.796Z,3.63
2018-06-18T00:23:15.729Z,3.60
2018-06-18T00:28:06.626Z,4.10
2018-06-18T00:32:57.693Z,3.60
2018-06-18T00:37:49.331Z,4.00
2018-06-18T00:42:40.969Z,3.53
2018-06-18T00:47:32.668Z,4.00
2018-06-18T00:52:23.572Z,3.40
2018-06-18T00:57:14.497Z,3.10
2018-06-18T01:02:05.392Z,3.83
2018-06-18T01:06:56.335Z,3.80
2018-06-18T01:11:47.219Z,4.23
2018-06-18T01:16:38.180Z,4.20
2018-06-18T01:21:29.100Z,3.77
2018-06-18T01:26:20.001Z,3.83
2018-06-18T01:31:10.911Z,3.87
2018-06-18T01:36:01.809Z,3.70
2018-06-18T01:40:52.704Z,3.67
2018-06-18T01:45:44.339Z,3.87
2018-06-18T01:50:35.968Z,3.87
2018-06-18T01:55:27.610Z,3.90
2018-06-18T02:00:19.254Z,3.77
2018-06-18T02:05:10.886Z,3.60
2018-06-18T02:10:02.513Z,3.97
2018-06-18T02:14:54.160Z,3.63
2018-06-18T02:19:45.832Z,4.53
2018-06-18T02:24:36.741Z,3.47
2018-06-18T02:29:48.600Z,4.07
2018-06-18T02:39:57.333Z,3.70
2018-06-18T02:44:48.217Z,3.43
2018-06-18T02:49:39.187Z,3.43
2018-06-18T02:54:30.090Z,3.47
2018-06-18T02:59:20.976Z,3.70
2018-06-18T03:04:11.873Z,3.83
2018-06-18T03:09:03.556Z,3.67
2018-06-18T03:13:54.451Z,3.93
2018-06-18T03:18:45.341Z,3.93
2018-06-18T03:29:10.846Z,3.12
2018-06-18T03:34:01.740Z,4.10
2018-06-18T03:38:52.630Z,3.50
2018-06-18T03:43:45.057Z,3.37
2018-06-18T03:48:35.973Z,3.77
2018-06-18T03:53:26.883Z,3.50
2018-06-18T03:58:17.792Z,3.50
2018-06-18T04:03:14.787Z,3.50
2018-06-18T04:08:05.655Z,3.80
2018-06-18T04:12:57.312Z,3.57
2018-06-18T04:17:48.221Z,4.03
2018-06-18T04:22:39.114Z,3.80
2018-06-18T04:27:30.752Z,3.70
2018-06-18T04:32:21.652Z,3.37
2018-06-18T04:37:13.294Z,3.67
2018-06-18T04:42:04.930Z,3.00
2018-06-18T04:52:16.180Z,3.40
2018-06-18T04:57:07.073Z,2.80
2018-06-18T05:01:58.779Z,3.17
2018-06-18T05:06:49.637Z,3.00
2018-06-18T05:11:40.522Z,3.27
2018-06-18T05:16:31.425Z,3.90
2018-06-18T05:21:22.378Z,3.63
2018-06-18T05:26:14.008Z,3.60
2018-06-18T05:31:05.703Z,3.30
2018-06-18T05:35:56.612Z,3.40
2018-06-18T05:40:47.516Z,3.37
2018-06-18T05:45:38.418Z,3.83
2018-06-18T05:50:30.118Z,3.53
2018-06-18T05:55:21.002Z,3.13
2018-06-18T06:00:11.943Z,3.50
2018-06-18T06:05:02.817Z,3.23
2018-06-18T06:09:53.694Z,3.53
2018-06-18T06:14:45.344Z,3.30
2018-06-18T06:19:36.996Z,3.10
2018-06-18T06:24:28.679Z,3.23
2018-06-18T06:29:20.429Z,3.67
2018-06-18T06:34:11.327Z,2.87
2018-06-18T06:39:02.239Z,3.60
2018-06-18T06:43:53.123Z,2.73
2018-06-18T06:48:44.757Z,2.90
2018-06-18T06:53:36.430Z,3.50
2018-06-18T06:58:27.312Z,4.10
2018-06-18T07:03:18.996Z,3.37
2018-06-18T07:08:09.896Z,2.93
2018-06-18T07:13:00.795Z,2.60
2018-06-18T07:17:51.747Z,2.70
2018-06-18T07:22:42.626Z,3.07
2018-06-18T07:27:34.311Z,3.27
2018-06-18T07:32:25.217Z,3.23
2018-06-18T07:37:16.116Z,3.60
2018-06-18T07:42:07.072Z,3.10
2018-06-18T07:46:57.968Z,4.17
2018-06-18T07:51:48.926Z,3.40
2018-06-18T07:56:39.738Z,3.37
2018-06-18T08:01:30.633Z,4.03
2018-06-18T08:06:21.524Z,3.70
2018-06-18T08:11:12.433Z,3.67
2018-06-18T08:16:03.326Z,3.60
2018-06-18T08:20:54.950Z,3.23
2018-06-18T08:25:45.826Z,3.87
2018-06-18T08:30:36.721Z,3.40
2018-06-18T08:35:27.601Z,3.27
2018-06-18T08:40:18.494Z,3.40
2018-06-18T08:45:09.389Z,3.27
2018-06-18T08:50:00.280Z,3.40
2018-06-18T09:00:32.008Z,4.93
2018-06-18T09:05:22.912Z,4.27
2018-06-18T09:10:13.805Z,4.20
2018-06-18T09:15:04.714Z,4.20
2018-06-18T09:19:55.648Z,3.70
2018-06-18T09:24:47.292Z,4.03
2018-06-18T09:29:38.979Z,4.20
2018-06-18T09:34:29.871Z,4.13
2018-06-18T09:39:20.772Z,4.20
2018-06-18T09:44:11.677Z,4.77
2018-06-18T09:49:03.335Z,4.70
2018-06-18T09:59:24.278Z,5.20
2018-06-18T10:04:15.916Z,5.30
2018-06-18T10:09:06.798Z,5.47
2018-06-18T10:13:57.715Z,3.70
2018-06-18T10:18:48.720Z,5.27
2018-06-18T10:23:39.620Z,4.90
2018-06-18T10:28:30.512Z,4.90
2018-06-18T10:33:27.504Z,3.97
2018-06-18T10:38:24.644Z,4.60
2018-06-18T10:43:15.574Z,4.00
2018-06-18T10:48:06.481Z,4.07
2018-06-18T10:52:57.437Z,4.00
2018-06-18T10:57:48.322Z,4.13
2018-06-18T11:02:39.216Z,3.60
2018-06-18T11:07:30.861Z,5.17
2018-06-18T11:12:21.853Z,5.20
2018-06-18T11:17:13.047Z,4.63
2018-06-18T11:22:03.730Z,4.73
2018-06-18T11:26:54.674Z,5.10
2018-06-18T11:31:45.558Z,4.70
2018-06-18T11:36:36.442Z,5.30
2018-06-18T11:41:27.336Z,4.40
2018-06-18T11:46:18.237Z,4.00
2018-06-18T11:51:09.140Z,4.20
2018-06-18T11:56:00.282Z,4.30
2018-06-18T12:01:07.100Z,3.27
2018-06-18T12:11:16.777Z,3.60
2018-06-18T12:16:07.666Z,3.57
2018-06-18T12:20:58.641Z,3.20
2018-06-18T12:25:49.534Z,3.37
2018-06-18T12:30:40.422Z,3.40
2018-06-18T12:35:31.313Z,2.90
2018-06-18T12:40:22.951Z,2.37
2018-06-18T12:45:14.597Z,2.30
2018-06-18T12:55:39.354Z,2.80
2018-06-18T13:00:30.238Z,2.57
2018-06-18T13:05:21.873Z,1.80
2018-06-18T13:10:13.682Z,2.50
2018-06-18T13:15:04.521Z,1.97
2018-06-18T13:19:56.214Z,1.50
2018-06-18T13:24:47.098Z,1.90
2018-06-18T13:29:38.722Z,1.97
2018-06-18T13:34:30.356Z,2.10
2018-06-18T13:44:45.832Z,2.20
2018-06-18T13:49:36.800Z,1.77
2018-06-18T13:54:28.422Z,2.27
2018-06-18T13:59:19.306Z,2.20
2018-06-18T14:04:10.200Z,2.77
2018-06-18T14:09:01.864Z,2.00
2018-06-18T14:13:52.796Z,1.83
2018-06-18T14:18:43.650Z,1.93
2018-06-18T14:23:35.282Z,1.70
2018-06-18T14:28:26.921Z,1.97
2018-06-18T14:38:55.504Z,2.30
2018-06-18T14:43:46.404Z,1.50
2018-06-18T14:48:37.396Z,1.67
2018-06-18T14:53:28.218Z,1.47
2018-06-18T14:58:19.112Z,1.73
2018-06-18T15:03:10.758Z,2.50
2018-06-18T15:08:02.583Z,1.73
2018-06-18T15:12:53.487Z,1.70
2018-06-18T15:17:44.398Z,1.60
2018-06-18T15:22:35.305Z,1.63
2018-06-18T15:27:26.200Z,1.80
2018-06-18T15:32:17.125Z,1.57
2018-06-18T15:37:08.754Z,1.60
2018-06-18T15:41:59.918Z,1.70
2018-06-18T15:46:51.596Z,1.80
2018-06-18T15:51:42.500Z,1.50
2018-06-18T15:56:34.209Z,1.67
2018-06-18T16:01:25.120Z,1.50
2018-06-18T16:06:16.021Z,1.97
2018-06-18T16:11:06.999Z,1.67
2018-06-18T16:15:58.626Z,1.63
2018-06-18T16:20:49.536Z,1.70
2018-06-18T16:25:40.428Z,1.90
2018-06-18T16:30:31.340Z,2.10
2018-06-18T16:35:22.240Z,1.53
2018-06-18T16:40:13.135Z,1.90
2018-06-18T16:45:04.019Z,1.50
2018-06-18T16:49:54.915Z,1.87
2018-06-18T16:54:45.820Z,1.67
2018-06-18T16:59:36.720Z,2.00
2018-06-18T17:04:27.613Z,1.80
2018-06-18T17:09:19.250Z,1.70
2018-06-18T17:14:10.244Z,1.70
2018-06-18T17:19:01.128Z,1.63
2018-06-18T17:23:52.022Z,1.70
2018-06-18T17:28:42.912Z,1.40
2018-06-18T17:33:33.794Z,1.60
2018-06-18T17:38:24.674Z,1.40
2018-06-18T17:43:15.590Z,1.70
2018-06-18T17:48:07.230Z,1.37
2018-06-18T17:52:58.839Z,1.40
2018-06-18T18:03:07.510Z,1.60
2018-06-18T18:07:59.157Z,1.80
2018-06-18T18:12:50.060Z,1.50
2018-06-18T18:17:41.704Z,1.50
2018-06-18T18:22:33.391Z,1.50
2018-06-18T18:27:24.289Z,2.03
2018-06-18T18:32:15.185Z,1.50
2018-06-18T18:37:06.089Z,2.00
2018-06-18T18:41:57.727Z,1.70
2018-06-18T18:46:49.364Z,2.10
2018-06-18T18:51:40.996Z,2.10
2018-06-18T18:56:36.629Z,1.77
2018-06-18T19:01:28.257Z,2.00
2018-06-18T19:06:19.882Z,1.87
2018-06-18T19:11:10.788Z,2.00
2018-06-18T19:16:01.704Z,2.30
2018-06-18T19:20:52.617Z,1.80
2018-06-18T19:25:44.276Z,2.27
2018-06-18T19:30:35.149Z,2.00
2018-06-18T19:35:26.031Z,2.10
2018-06-18T19:40:17.730Z,2.13
2018-06-18T19:45:08.642Z,2.30
2018-06-18T19:50:00.421Z,2.10
2018-06-18T19:54:52.048Z,2.03
2018-06-18T19:59:43.666Z,2.03
2018-06-18T20:04:35.385Z,2.20
2018-06-18T20:09:26.316Z,2.10
2018-06-18T20:14:17.325Z,2.70
2018-06-18T20:19:08.281Z,1.97
2018-06-18T20:23:59.173Z,2.00
2018-06-18T20:28:50.077Z,2.13
2018-06-18T20:33:40.962Z,2.20
2018-06-18T20:38:31.902Z,2.30
2018-06-18T20:43:22.832Z,2.30
2018-06-18T20:48:13.945Z,2.10
2018-06-18T20:53:04.843Z,2.27
2018-06-18T20:57:55.757Z,2.30
2018-06-18T21:02:46.707Z,2.47
2018-06-18T21:07:37.569Z,2.30
2018-06-18T21:12:29.212Z,2.20
2018-06-18T21:17:20.842Z,2.80
2018-06-18T21:22:12.474Z,2.43
2018-06-18T21:27:04.112Z,2.53
2018-06-18T21:31:55.748Z,2.00
2018-06-18T21:36:47.396Z,2.60
2018-06-18T21:41:38.291Z,2.70
2018-06-18T21:46:29.205Z,2.83
2018-06-18T21:51:20.123Z,3.00
2018-06-18T21:56:11.088Z,2.50
2018-06-18T22:01:01.994Z,2.60
2018-06-18T22:05:53.002Z,2.47
2018-06-18T22:10:43.929Z,2.20
2018-06-18T22:15:36.480Z,2.93
2018-06-18T22:20:28.158Z,2.50
2018-06-18T22:25:19.031Z,2.70
2018-06-18T22:30:10.651Z,2.17
2018-06-18T22:35:01.544Z,2.87
2018-06-18T22:39:52.448Z,2.70
2018-06-18T22:44:43.338Z,2.23
2018-06-18T22:49:34.230Z,2.70
2018-06-18T22:54:25.868Z,3.00
2018-06-18T22:59:17.509Z,3.10
2018-06-18T23:04:09.204Z,2.47
2018-06-18T23:09:00.109Z,2.70
2018-06-18T23:13:51.213Z,2.50
2018-06-18T23:18:42.114Z,2.30
2018-06-18T23:23:33.008Z,2.63
2018-06-18T23:28:24.661Z,2.10
2018-06-18T23:33:16.308Z,2.80
2018-06-18T23:38:07.185Z,2.77
2018-06-18T23:42:58.077Z,3.00
2018-06-18T23:47:48.968Z,2.70
2018-06-18T23:52:39.852Z,2.60
2018-06-18T23:57:31.500Z,2.80
